createdAt,value
2018-10-04T00:00:57.579Z,65.65
2018-10-04T00:03:27.498Z,66.12
2018-10-04T00:05:57.169Z,66.63
2018-10-04T00:08:28.748Z,66.75
2018-10-04T00:11:00.824Z,66.32
2018-10-04T00:13:30.610Z,65.89
2018-10-04T00:16:03.152Z,65.45
2018-10-04T00:18:35.394Z,65.36
2018-10-04T00:21:05.588Z,66.12
2018-10-04T00:23:38.144Z,66.30
2018-10-04T00:26:09.531Z,66.59
2018-10-04T00:28:41.561Z,67.24
2018-10-04T00:31:12.464Z,66.86
2018-10-04T00:33:48.244Z,66.89
2018-10-04T00:36:18.115Z,67.24
2018-10-04T00:38:51.174Z,67.54
2018-10-04T00:41:21.721Z,67.03
2018-10-04T00:43:52.102Z,67.41
2018-10-04T00:46:22.040Z,66.13
2018-10-04T00:48:51.773Z,65.86
2018-10-04T00:51:22.812Z,66.40
2018-10-04T00:53:53.695Z,66.05
2018-10-04T00:56:23.654Z,66.11
2018-10-04T00:58:53.320Z,65.87
2018-10-04T01:01:23.579Z,66.03
2018-10-04T01:03:53.195Z,65.13
2018-10-04T01:06:24.597Z,65.37
2018-10-04T01:08:54.750Z,65.12
2018-10-04T01:11:26.605Z,65.12
2018-10-04T01:13:56.652Z,65.59
2018-10-04T01:16:27.585Z,65.13
2018-10-04T01:19:01.641Z,65.25
2018-10-04T01:21:32.647Z,66.31
2018-10-04T01:24:02.365Z,66.71
2018-10-04T01:34:29.480Z,67.45
2018-10-04T01:37:00.370Z,66.97
2018-10-04T01:39:29.748Z,66.86
2018-10-04T01:42:00.218Z,66.92
2018-10-04T01:44:29.871Z,66.90
2018-10-04T01:46:59.589Z,66.53
2018-10-04T01:49:29.031Z,66.96
2018-10-04T01:51:58.759Z,66.57
2018-10-04T01:54:29.584Z,67.12
2018-10-04T01:57:01.347Z,66.42
2018-10-04T01:59:31.739Z,65.84
2018-10-04T02:02:01.560Z,66.21
2018-10-04T02:04:54.778Z,66.04
2018-10-04T02:07:25.791Z,65.21
2018-10-04T02:09:55.197Z,64.96
2018-10-04T02:12:24.643Z,65.80
2018-10-04T02:14:56.101Z,65.48
2018-10-04T02:17:25.745Z,66.48
2018-10-04T02:19:55.643Z,66.21
2018-10-04T02:22:25.762Z,65.49
2018-10-04T02:24:55.762Z,65.75
2018-10-04T02:27:25.799Z,66.03
2018-10-04T02:30:21.598Z,66.05
2018-10-04T02:32:51.460Z,66.47
2018-10-04T02:35:21.761Z,67.11
2018-10-04T02:37:51.896Z,67.84
2018-10-04T02:40:22.102Z,67.55
2018-10-04T02:42:51.827Z,68.24
2018-10-04T02:45:21.813Z,67.64
2018-10-04T02:47:51.694Z,67.07
2018-10-04T02:50:21.514Z,67.34
2018-10-04T02:52:52.024Z,66.62
2018-10-04T02:55:28.243Z,65.45
2018-10-04T02:57:58.137Z,65.91
2018-10-04T03:00:28.567Z,66.75
2018-10-04T03:02:58.343Z,66.71
2018-10-04T03:05:29.365Z,65.91
2018-10-04T03:07:59.656Z,66.72
2018-10-04T03:10:29.293Z,67.14
2018-10-04T03:12:59.033Z,67.00
2018-10-04T03:15:29.035Z,67.19
2018-10-04T03:17:59.068Z,67.29
2018-10-04T03:20:28.756Z,67.44
2018-10-04T03:22:58.542Z,68.09
2018-10-04T03:25:29.153Z,67.59
2018-10-04T03:27:58.907Z,68.01
2018-10-04T03:33:08.620Z,67.15
2018-10-04T03:35:38.920Z,66.93
2018-10-04T03:38:11.414Z,66.14
2018-10-04T03:40:40.840Z,66.63
2018-10-04T03:43:10.414Z,66.75
2018-10-04T03:45:40.333Z,66.64
2018-10-04T03:48:09.830Z,67.50
2018-10-04T03:50:39.417Z,67.82
2018-10-04T03:53:10.056Z,67.22
2018-10-04T03:55:42.154Z,67.33
2018-10-04T03:58:11.790Z,66.93
2018-10-04T04:00:43.301Z,67.33
2018-10-04T04:03:13.543Z,66.50
2018-10-04T04:05:43.556Z,66.54
2018-10-04T04:08:13.677Z,66.75
2018-10-04T04:10:45.266Z,66.42
2018-10-04T04:13:15.021Z,65.61
2018-10-04T04:15:44.538Z,65.17
2018-10-04T04:18:14.427Z,64.63
2018-10-04T04:20:45.056Z,64.88
2018-10-04T04:23:16.444Z,64.70
2018-10-04T04:25:47.780Z,64.17
2018-10-04T04:28:21.063Z,64.58
2018-10-04T04:30:50.847Z,64.34
2018-10-04T04:33:20.368Z,63.93
2018-10-04T04:35:50.418Z,63.69
2018-10-04T04:38:20.174Z,64.24
2018-10-04T04:40:50.381Z,64.04
2018-10-04T04:43:21.739Z,63.27
2018-10-04T04:45:53.190Z,63.41
2018-10-04T04:48:22.520Z,62.80
2018-10-04T04:50:52.768Z,62.83
2018-10-04T04:53:32.672Z,63.05
2018-10-04T04:56:02.422Z,63.46
2018-10-04T04:58:34.271Z,62.77
2018-10-04T05:01:04.122Z,62.40
2018-10-04T05:03:40.639Z,62.25
2018-10-04T05:06:10.314Z,62.11
2018-10-04T05:08:39.658Z,62.65
2018-10-04T05:11:11.977Z,62.59
2018-10-04T05:13:43.429Z,62.86
2018-10-04T05:16:13.934Z,62.87
2018-10-04T05:18:43.481Z,63.33
2018-10-04T05:21:13.090Z,63.17
2018-10-04T05:23:44.246Z,63.17
2018-10-04T05:26:14.761Z,63.09
2018-10-04T05:28:48.401Z,63.41
2018-10-04T05:31:19.936Z,63.35
2018-10-04T05:33:49.835Z,63.97
2018-10-04T05:36:20.264Z,64.10
2018-10-04T05:38:50.245Z,64.56
2018-10-04T05:41:26.457Z,64.20
2018-10-04T05:44:00.797Z,65.25
2018-10-04T05:46:32.166Z,64.81
2018-10-04T05:49:01.581Z,65.29
2018-10-04T05:51:34.721Z,65.20
2018-10-04T05:54:07.839Z,64.49
2018-10-04T05:56:37.195Z,64.52
2018-10-04T05:59:07.433Z,63.92
2018-10-04T06:01:38.526Z,64.31
2018-10-04T06:04:10.723Z,64.55
2018-10-04T06:06:43.288Z,65.32
2018-10-04T06:09:13.896Z,65.26
2018-10-04T06:11:45.381Z,64.76
2018-10-04T06:14:18.192Z,64.34
2018-10-04T06:16:48.246Z,64.86
2018-10-04T06:19:18.647Z,64.57
2018-10-04T06:21:53.508Z,65.01
2018-10-04T06:24:22.945Z,64.55
2018-10-04T06:26:55.736Z,64.95
2018-10-04T06:29:28.098Z,64.89
2018-10-04T06:32:02.199Z,65.24
2018-10-04T06:34:31.633Z,64.92
2018-10-04T06:37:02.394Z,64.78
2018-10-04T06:39:33.070Z,64.47
2018-10-04T06:42:05.297Z,64.27
2018-10-04T06:44:40.558Z,64.46
2018-10-04T06:47:11.278Z,64.46
2018-10-04T06:49:41.611Z,63.83
2018-10-04T06:52:14.169Z,63.97
2018-10-04T06:54:45.266Z,62.97
2018-10-04T06:57:14.681Z,62.84
2018-10-04T06:59:46.387Z,63.39
2018-10-04T07:02:19.115Z,63.19
2018-10-04T07:04:51.980Z,62.37
2018-10-04T07:07:22.153Z,62.94
2018-10-04T07:09:59.568Z,62.34
2018-10-04T07:12:30.746Z,62.36
2018-10-04T07:15:08.438Z,62.62
2018-10-04T07:17:42.666Z,62.31
2018-10-04T07:20:15.557Z,62.32
2018-10-04T07:22:48.193Z,62.66
2018-10-04T07:25:20.759Z,61.98
2018-10-04T07:27:51.668Z,61.73
2018-10-04T07:30:25.141Z,61.55
2018-10-04T07:32:55.210Z,61.28
2018-10-04T07:35:31.481Z,61.04
2018-10-04T07:38:05.278Z,61.92
2018-10-04T07:40:40.423Z,62.18
2018-10-04T07:43:10.709Z,60.92
2018-10-04T07:45:43.120Z,60.93
2018-10-04T07:48:15.883Z,60.60
2018-10-04T07:50:47.847Z,60.29
2018-10-04T07:53:24.342Z,60.46
2018-10-04T07:55:57.725Z,59.81
2018-10-04T07:58:27.703Z,59.97
2018-10-04T08:01:05.675Z,60.32
2018-10-04T08:03:39.905Z,61.01
2018-10-04T08:06:09.490Z,60.79
2018-10-04T08:08:43.307Z,60.07
2018-10-04T08:11:14.553Z,60.15
2018-10-04T08:13:45.334Z,59.99
2018-10-04T08:16:19.275Z,59.03
2018-10-04T08:18:52.085Z,59.31
2018-10-04T08:21:22.807Z,58.83
2018-10-04T08:24:01.549Z,58.76
2018-10-04T08:26:39.261Z,59.51
2018-10-04T08:29:13.276Z,59.18
2018-10-04T08:31:52.351Z,59.20
2018-10-04T08:34:23.974Z,59.00
2018-10-04T08:36:57.100Z,58.65
2018-10-04T08:39:29.100Z,58.65
2018-10-04T08:41:59.635Z,58.85
2018-10-04T08:44:29.198Z,58.28
2018-10-04T08:47:02.653Z,57.98
2018-10-04T08:49:36.361Z,58.66
2018-10-04T08:52:14.325Z,58.08
2018-10-04T08:54:44.252Z,58.04
2018-10-04T08:57:16.200Z,58.08
2018-10-04T08:59:54.006Z,58.66
2018-10-04T09:02:28.451Z,59.36
2018-10-04T09:04:58.263Z,59.23
2018-10-04T09:07:32.844Z,58.60
2018-10-04T09:10:04.074Z,59.04
2018-10-04T09:12:39.882Z,58.45
2018-10-04T09:18:01.284Z,57.85
2018-10-04T09:20:34.136Z,56.79
2018-10-04T09:23:04.203Z,57.49
2018-10-04T09:25:38.690Z,57.77
2018-10-04T09:28:14.373Z,56.52
2018-10-04T09:30:52.360Z,56.43
2018-10-04T09:33:22.536Z,56.26
2018-10-04T09:35:55.608Z,57.14
2018-10-04T09:38:26.948Z,57.66
2018-10-04T09:40:58.773Z,57.26
2018-10-04T09:43:34.676Z,57.08
2018-10-04T09:46:08.497Z,55.95
2018-10-04T09:48:39.956Z,56.11
2018-10-04T09:51:18.431Z,55.80
2018-10-04T09:56:27.405Z,55.15
2018-10-04T09:59:02.520Z,56.13
2018-10-04T10:01:37.734Z,54.66
2018-10-04T10:04:10.961Z,55.31
2018-10-04T10:06:40.469Z,54.42
2018-10-04T10:09:11.960Z,54.23
2018-10-04T10:11:44.811Z,54.24
2018-10-04T10:14:18.672Z,53.82
2018-10-04T10:16:50.601Z,54.72
2018-10-04T10:19:21.343Z,53.15
2018-10-04T10:21:51.803Z,54.44
2018-10-04T10:24:22.104Z,55.25
2018-10-04T10:26:52.332Z,54.97
2018-10-04T10:29:30.049Z,53.43
2018-10-04T10:32:01.199Z,53.83
2018-10-04T10:34:32.684Z,52.87
2018-10-04T10:37:03.593Z,52.04
2018-10-04T10:39:35.209Z,52.96
2018-10-04T10:42:04.626Z,51.92
2018-10-04T10:44:35.817Z,52.50
2018-10-04T10:47:05.828Z,50.58
2018-10-04T10:49:36.380Z,50.42
2018-10-04T10:52:06.933Z,51.09
2018-10-04T10:54:40.205Z,51.89
2018-10-04T10:57:12.110Z,51.81
2018-10-04T10:59:41.553Z,51.47
2018-10-04T11:02:11.627Z,52.19
2018-10-04T11:04:43.358Z,51.41
2018-10-04T11:07:13.997Z,51.94
2018-10-04T11:09:47.557Z,53.01
2018-10-04T11:12:18.768Z,53.68
2018-10-04T11:14:48.259Z,52.36
2018-10-04T11:17:22.382Z,52.04
2018-10-04T11:19:52.359Z,52.19
2018-10-04T11:22:22.841Z,52.06
2018-10-04T11:24:54.283Z,52.08
2018-10-04T11:27:25.255Z,52.28
2018-10-04T11:29:56.030Z,51.55
2018-10-04T11:32:26.675Z,50.80
2018-10-04T11:34:56.611Z,51.09
2018-10-04T11:37:30.696Z,51.85
2018-10-04T11:40:09.463Z,52.70
2018-10-04T11:42:41.430Z,51.59
2018-10-04T11:45:23.269Z,52.08
2018-10-04T11:47:55.807Z,51.97
2018-10-04T11:50:30.369Z,51.84
2018-10-04T11:53:06.899Z,53.03
2018-10-04T11:55:57.885Z,52.65
2018-10-04T11:58:29.709Z,52.28
2018-10-04T12:01:12.548Z,51.48
2018-10-04T12:06:42.801Z,49.83
2018-10-04T12:09:14.690Z,50.57
2018-10-04T12:11:46.334Z,50.64
2018-10-04T12:14:20.162Z,49.31
2018-10-04T12:16:50.230Z,49.90
2018-10-04T12:19:20.282Z,49.74
2018-10-04T12:22:03.552Z,49.24
2018-10-04T12:27:31.557Z,50.85
2018-10-04T12:30:22.619Z,49.77
2018-10-04T12:32:53.140Z,48.70
2018-10-04T12:35:42.690Z,47.96
2018-10-04T12:38:20.281Z,48.79
2018-10-04T12:40:49.872Z,48.64
2018-10-04T12:43:37.941Z,50.04
2018-10-04T12:46:08.480Z,48.69
2018-10-04T12:48:53.908Z,48.77
2018-10-04T12:51:25.784Z,48.12
2018-10-04T12:54:00.147Z,47.36
2018-10-04T12:56:30.852Z,47.22
2018-10-04T12:59:02.908Z,48.61
2018-10-04T13:01:33.369Z,47.37
2018-10-04T13:04:03.769Z,48.56
2018-10-04T13:06:35.334Z,47.92
2018-10-04T13:09:07.307Z,48.50
2018-10-04T13:11:39.829Z,47.57
2018-10-04T13:14:09.732Z,48.32
2018-10-04T13:16:39.788Z,47.97
2018-10-04T13:19:12.228Z,48.41
2018-10-04T13:21:43.351Z,48.35
2018-10-04T13:24:13.801Z,47.49
2018-10-04T13:26:45.587Z,48.17
2018-10-04T13:29:16.233Z,47.93
2018-10-04T13:31:47.844Z,48.74
2018-10-04T13:34:17.255Z,48.98
2018-10-04T13:36:50.653Z,47.58
2018-10-04T13:39:23.548Z,47.39
2018-10-04T13:42:01.525Z,46.73
2018-10-04T13:44:35.891Z,48.57
2018-10-04T13:47:06.835Z,50.30
2018-10-04T13:49:36.523Z,48.66
2018-10-04T13:52:10.502Z,49.11
2018-10-04T13:54:40.990Z,49.16
2018-10-04T13:57:14.542Z,49.14
2018-10-04T13:59:46.026Z,49.21
2018-10-04T14:02:17.271Z,49.13
2018-10-04T14:04:46.998Z,48.94
2018-10-04T14:07:17.409Z,48.44
2018-10-04T14:09:49.284Z,49.94
2018-10-04T14:12:24.332Z,50.03
2018-10-04T14:14:53.976Z,50.66
2018-10-04T14:17:25.291Z,50.56
2018-10-04T14:19:54.825Z,50.26
2018-10-04T14:22:25.361Z,50.33
2018-10-04T14:24:55.443Z,49.58
2018-10-04T14:27:31.944Z,49.40
2018-10-04T14:30:04.744Z,49.51
2018-10-04T14:32:35.989Z,49.38
2018-10-04T14:35:06.065Z,48.90
2018-10-04T14:40:24.822Z,50.52
2018-10-04T14:42:54.614Z,49.98
2018-10-04T14:45:29.789Z,50.35
2018-10-04T14:48:00.868Z,50.65
2018-10-04T14:50:33.449Z,50.03
2018-10-04T14:53:12.495Z,50.44
2018-10-04T14:55:43.385Z,50.03
2018-10-04T14:58:13.659Z,49.79
2018-10-04T15:00:46.934Z,50.06
2018-10-04T15:03:16.488Z,49.95
2018-10-04T15:05:48.993Z,50.96
2018-10-04T15:08:23.169Z,50.98
2018-10-04T15:10:55.628Z,50.54
2018-10-04T15:13:27.225Z,49.89
2018-10-04T15:15:57.392Z,50.11
2018-10-04T15:18:28.248Z,49.50
2018-10-04T15:21:04.620Z,49.73
2018-10-04T15:23:34.368Z,50.50
2018-10-04T15:26:03.903Z,50.14
2018-10-04T15:28:33.437Z,49.81
2018-10-04T15:31:04.434Z,48.94
2018-10-04T15:33:36.743Z,49.28
2018-10-04T15:36:06.475Z,49.47
2018-10-04T15:38:36.169Z,49.63
2018-10-04T15:41:07.400Z,48.90
2018-10-04T15:43:37.484Z,49.01
2018-10-04T15:46:09.275Z,49.25
2018-10-04T15:48:40.199Z,48.60
2018-10-04T15:51:14.944Z,48.29
2018-10-04T15:53:45.555Z,48.75
2018-10-04T15:56:15.829Z,49.93
2018-10-04T15:58:46.239Z,49.45
2018-10-04T16:01:20.091Z,49.54
2018-10-04T16:03:52.635Z,50.14
2018-10-04T16:06:26.176Z,49.54
2018-10-04T16:08:56.522Z,49.84
2018-10-04T16:11:30.633Z,50.10
2018-10-04T16:14:06.193Z,49.18
2018-10-04T16:16:37.667Z,49.74
2018-10-04T16:19:10.942Z,50.25
2018-10-04T16:21:42.226Z,49.87
2018-10-04T16:24:13.644Z,49.78
2018-10-04T16:26:54.843Z,50.01
2018-10-04T16:29:26.413Z,49.79
2018-10-04T16:32:02.249Z,50.25
2018-10-04T16:34:33.159Z,50.54
2018-10-04T16:37:13.118Z,50.80
2018-10-04T16:39:44.295Z,51.21
2018-10-04T16:42:25.461Z,51.21
2018-10-04T16:44:55.297Z,51.08
2018-10-04T16:47:28.060Z,51.08
2018-10-04T16:49:59.384Z,50.87
2018-10-04T16:52:29.807Z,50.96
2018-10-04T16:55:03.271Z,51.02
2018-10-04T16:57:33.875Z,51.99
2018-10-04T17:00:14.173Z,51.96
2018-10-04T17:02:46.269Z,52.32
2018-10-04T17:05:20.972Z,52.19
2018-10-04T17:07:55.469Z,52.12
2018-10-04T17:10:32.694Z,52.11
2018-10-04T17:13:10.690Z,51.69
2018-10-04T17:15:45.898Z,52.33
2018-10-04T17:18:16.090Z,52.05
2018-10-04T17:20:48.072Z,51.33
2018-10-04T17:23:24.368Z,51.01
2018-10-04T17:26:12.854Z,50.94
2018-10-04T17:28:43.249Z,51.44
2018-10-04T17:31:13.973Z,51.49
2018-10-04T17:33:46.444Z,51.54
2018-10-04T17:36:16.701Z,50.92
2018-10-04T17:38:47.521Z,51.67
2018-10-04T17:41:18.490Z,51.48
2018-10-04T17:43:48.611Z,51.58
2018-10-04T17:46:24.316Z,52.02
2018-10-04T17:48:55.981Z,51.47
2018-10-04T17:51:25.891Z,51.79
2018-10-04T17:53:56.574Z,51.76
2018-10-04T17:56:29.778Z,52.22
2018-10-04T17:59:02.213Z,53.40
2018-10-04T18:01:37.519Z,54.39
2018-10-04T18:04:11.052Z,54.90
2018-10-04T18:06:48.192Z,54.80
2018-10-04T18:09:17.657Z,54.48
2018-10-04T18:11:55.630Z,53.86
2018-10-04T18:14:31.644Z,54.54
2018-10-04T18:17:12.900Z,55.25
2018-10-04T18:19:45.555Z,55.61
2018-10-04T18:22:19.220Z,55.83
2018-10-04T18:24:50.950Z,55.95
2018-10-04T18:27:34.251Z,56.06
2018-10-04T18:30:17.621Z,55.96
2018-10-04T18:32:47.589Z,55.86
2018-10-04T18:35:18.506Z,56.95
2018-10-04T18:37:49.817Z,56.66
2018-10-04T18:40:28.554Z,57.22
2018-10-04T18:42:58.582Z,57.85
2018-10-04T18:48:47.237Z,58.06
2018-10-04T18:51:20.278Z,58.71
2018-10-04T18:53:49.843Z,58.79
2018-10-04T18:56:25.794Z,59.22
2018-10-04T18:58:57.092Z,58.93
2018-10-04T19:01:29.565Z,58.79
2018-10-04T19:04:09.648Z,58.50
2018-10-04T19:06:43.685Z,58.00
2018-10-04T19:09:16.337Z,59.09
2018-10-04T19:11:49.922Z,58.42
2018-10-04T19:14:28.354Z,58.97
2018-10-04T19:17:01.165Z,59.01
2018-10-04T19:19:33.308Z,58.61
2018-10-04T19:22:03.177Z,59.16
2018-10-04T19:24:36.062Z,59.21
2018-10-04T19:27:10.375Z,59.25
2018-10-04T19:29:41.005Z,59.32
2018-10-04T19:32:10.561Z,59.78
2018-10-04T19:34:42.325Z,59.54
2018-10-04T19:37:17.052Z,59.87
2018-10-04T19:39:48.679Z,59.38
2018-10-04T19:42:19.508Z,59.45
2018-10-04T19:44:52.027Z,59.49
2018-10-04T19:47:25.922Z,59.38
2018-10-04T19:50:01.670Z,59.43
2018-10-04T19:52:35.927Z,59.55
2018-10-04T19:55:12.319Z,59.49
2018-10-04T19:57:43.440Z,60.31
2018-10-04T20:00:16.380Z,60.10
2018-10-04T20:02:47.554Z,59.53
2018-10-04T20:05:20.271Z,60.08
2018-10-04T20:07:52.948Z,60.02
2018-10-04T20:10:24.343Z,59.17
2018-10-04T20:12:55.691Z,60.21
2018-10-04T20:15:30.685Z,60.04
2018-10-04T20:20:52.845Z,59.43
2018-10-04T20:23:23.349Z,59.43
2018-10-04T20:25:53.033Z,59.54
2018-10-04T20:28:24.509Z,59.39
2018-10-04T20:31:10.292Z,59.83
2018-10-04T20:33:43.675Z,59.88
2018-10-04T20:36:14.920Z,60.40
2018-10-04T20:38:46.467Z,59.87
2018-10-04T20:41:18.585Z,60.40
2018-10-04T20:43:48.761Z,59.99
2018-10-04T20:46:23.531Z,60.58
2018-10-04T20:49:00.283Z,60.39
2018-10-04T20:51:38.011Z,59.68
2018-10-04T20:54:08.613Z,60.36
2018-10-04T20:56:41.410Z,59.89
2018-10-04T20:59:12.409Z,59.79
2018-10-04T21:01:47.645Z,60.52
2018-10-04T21:04:22.944Z,60.77
2018-10-04T21:06:55.317Z,60.22
2018-10-04T21:09:26.823Z,60.62
2018-10-04T21:11:57.222Z,60.07
2018-10-04T21:14:30.693Z,59.98
2018-10-04T21:17:05.845Z,60.16
2018-10-04T21:19:36.501Z,60.59
2018-10-04T21:22:07.221Z,60.57
2018-10-04T21:24:38.073Z,59.90
2018-10-04T21:27:13.652Z,60.03
2018-10-04T21:29:49.183Z,60.22
2018-10-04T21:32:30.462Z,60.59
2018-10-04T21:35:11.123Z,59.95
2018-10-04T21:37:40.955Z,61.17
2018-10-04T21:40:11.123Z,61.48
2018-10-04T21:42:40.583Z,61.32
2018-10-04T21:45:21.189Z,61.45
2018-10-04T21:47:52.958Z,62.43
2018-10-04T21:50:26.436Z,62.24
2018-10-04T21:52:57.437Z,61.45
2018-10-04T21:55:31.567Z,62.01
2018-10-04T21:58:03.176Z,62.64
2018-10-04T22:03:02.876Z,62.43
2018-10-04T22:05:43.153Z,62.07
2018-10-04T22:08:12.908Z,62.07
2018-10-04T22:10:43.386Z,62.02
2018-10-04T22:13:13.929Z,61.93
2018-10-04T22:15:45.595Z,61.71
2018-10-04T22:18:17.274Z,61.62
2018-10-04T22:20:48.637Z,61.64
2018-10-04T22:23:20.986Z,61.60
2018-10-04T22:25:50.439Z,62.52
2018-10-04T22:28:20.130Z,61.72
2018-10-04T22:30:51.517Z,61.88
2018-10-04T22:33:21.084Z,61.89
2018-10-04T22:35:51.767Z,62.16
2018-10-04T22:38:21.544Z,62.66
2018-10-04T22:40:51.384Z,62.62
2018-10-04T22:43:21.103Z,62.99
2018-10-04T22:45:53.381Z,62.31
2018-10-04T22:48:22.899Z,62.93
2018-10-04T22:50:52.668Z,62.68
2018-10-04T22:53:22.372Z,62.77
2018-10-04T22:55:55.002Z,63.12
2018-10-04T22:58:24.769Z,63.86
2018-10-04T23:00:58.809Z,64.32
2018-10-04T23:03:28.476Z,64.59
2018-10-04T23:05:57.844Z,64.22
2018-10-04T23:08:27.265Z,64.57
2018-10-04T23:10:58.292Z,64.52
2018-10-04T23:13:28.230Z,63.70
2018-10-04T23:15:58.136Z,63.51
2018-10-04T23:18:27.633Z,63.42
2018-10-04T23:20:58.238Z,63.96
2018-10-04T23:23:28.028Z,63.85
2018-10-04T23:25:57.824Z,63.80
2018-10-04T23:28:27.499Z,63.88
2018-10-04T23:30:57.226Z,64.13
2018-10-04T23:33:26.720Z,64.00
2018-10-04T23:35:56.616Z,64.81
2018-10-04T23:38:27.805Z,64.37
2018-10-04T23:40:57.865Z,64.28
2018-10-04T23:43:28.569Z,64.56
2018-10-04T23:46:00.297Z,64.32
2018-10-04T23:48:29.737Z,64.43
2018-10-04T23:50:59.940Z,63.39
2018-10-04T23:53:29.800Z,63.57
2018-10-04T23:56:04.588Z,63.83
2018-10-04T23:58:34.337Z,64.32
